Kronborg, Nebraska
Current Conditions -  °F | °C
As of 9:55 PM on Saturday 24 Jan 2015 (Local Time) from KAUH Reporting Station
Scattered Clouds Scattered Clouds  
Wind Chill: 38°   Ceiling: Unl
Heat Index: 45°   Visibility: 10mi
Dew Point: 37°   Wind: 17mph
Humidity: 73%   Direction: 300°WNW
Pressure: 29.72"   Gusts: NA
Location:  41.0075°N, 98.0042°W
Report Text: KAUH 250355Z AUTO 30015KT 10SM SCT120 07/03 A2972 RMK AO2 T00740028
Loading
Personal Weather Stations






























Interactive Weather Map New forecast layout! Learn more

10-Day Weather Forecast

Advertisements
Track Severe Weather on mobile